Arlington, Texas
Current Conditions -  °F | °C
As of 7:35 PM on Thursday 18 Dec 2014 (Local Time) from KGPM Reporting Station
Broken Clouds Broken Clouds  
Wind Chill: 46°   Ceiling: 1700
Heat Index: 48°   Visibility: 10mi
Dew Point: 44°   Wind: 6mph
Humidity: 86%   Direction: 30°NNE
Pressure: 30.17"   Gusts: NA
Location:  32.74°N, 97.11°W
Report Text: KGPM 190135Z AUTO 03005KT 10SM BKN017 09/07 A3017 RMK AO2 T00900068
Loading
Personal Weather Stations






























Interactive Weather Map New forecast layout! Learn more

10-Day Weather Forecast

Advertisements
Track Severe Weather on mobile